METAR Data
IDs: Format: Raw Decoded Include TAF

Data at: 2303 UTC 29 May 2020

METAR for:KEBS (Webster City Muni, IA, US)
Text:KEBS 292255Z AUTO 34014KT 10SM CLR 22/09 A3012 RMK AO2
Temperature: 22.0°C ( 72°F)
Dewpoint: 9.0°C ( 48°F) [RH = 43%]
Pressure (altimeter):30.12 inches Hg (1020.1 mb)
Winds:from the NNW (340 degrees) at 16 MPH (14 knots; 7.2 m/s)
Visibility:10 or more sm (16+ km)
Ceiling:at least 12,000 feet AGL
Clouds:sky clear below 12,000 feet AGL
QC Flag:automated observation with no human augmentation